createdAt,value
2022-10-04T00:00:13.172Z,1.20
2022-10-04T00:02:47.205Z,1.75
2022-10-04T00:05:18.591Z,1.17
2022-10-04T00:07:57.923Z,1.20
2022-10-04T00:10:34.489Z,0.90
2022-10-04T00:13:15.458Z,0.85
2022-10-04T00:15:43.301Z,0.95
2022-10-04T00:18:11.223Z,0.90
2022-10-04T00:20:53.517Z,0.85
2022-10-04T00:23:24.398Z,1.00
2022-10-04T00:25:53.549Z,0.70
2022-10-04T00:28:21.577Z,0.77
2022-10-04T00:31:25.970Z,0.73
2022-10-04T00:33:57.258Z,1.10
2022-10-04T00:36:24.813Z,0.70
2022-10-04T00:39:07.752Z,0.80
2022-10-04T00:41:52.898Z,0.60
2022-10-04T00:44:30.259Z,1.10
2022-10-04T00:47:00.137Z,1.10
2022-10-04T00:49:36.025Z,1.02
2022-10-04T00:52:12.954Z,1.15
2022-10-04T00:57:21.114Z,1.42
2022-10-04T01:00:29.933Z,1.35
2022-10-04T01:03:14.657Z,1.55
2022-10-04T01:05:52.612Z,1.30
2022-10-04T01:08:29.093Z,0.95
2022-10-04T01:11:02.612Z,1.23
2022-10-04T01:13:37.304Z,0.85
2022-10-04T01:16:05.204Z,1.17
2022-10-04T01:18:34.801Z,0.95
2022-10-04T01:21:27.400Z,0.80
2022-10-04T01:23:58.007Z,1.20
2022-10-04T01:26:34.662Z,1.42
2022-10-04T01:29:11.212Z,1.30
2022-10-04T01:31:49.321Z,1.02
2022-10-04T01:34:22.799Z,1.10
2022-10-04T01:36:52.926Z,1.15
2022-10-04T01:39:23.618Z,1.30
2022-10-04T01:42:07.777Z,1.25
2022-10-04T01:44:41.153Z,1.05
2022-10-04T01:47:14.939Z,1.30
2022-10-04T01:49:45.954Z,1.30
2022-10-04T01:52:20.873Z,1.00
2022-10-04T01:54:53.601Z,1.50
2022-10-04T01:57:27.118Z,1.40
2022-10-04T02:00:01.965Z,1.38
2022-10-04T02:02:49.706Z,1.42
2022-10-04T02:05:26.652Z,1.30
2022-10-04T02:10:26.608Z,1.20
2022-10-04T02:12:55.767Z,1.42
2022-10-04T02:15:26.911Z,1.38
2022-10-04T02:17:57.457Z,1.48
2022-10-04T02:20:27.932Z,1.70
2022-10-04T02:22:59.520Z,1.70
2022-10-04T02:25:27.347Z,1.73
2022-10-04T02:27:56.911Z,1.70
2022-10-04T02:30:25.158Z,2.25
2022-10-04T02:32:58.430Z,2.03
2022-10-04T02:35:38.800Z,1.88
2022-10-04T02:38:15.535Z,1.70
2022-10-04T02:41:12.532Z,1.60
2022-10-04T02:44:02.290Z,1.67
2022-10-04T02:46:57.690Z,1.73
2022-10-04T02:49:38.153Z,1.52
2022-10-04T02:52:24.600Z,1.40
2022-10-04T02:55:02.750Z,1.67
2022-10-04T02:57:33.245Z,1.48
2022-10-04T03:00:17.344Z,1.20
2022-10-04T03:03:17.075Z,1.30
2022-10-04T03:06:00.296Z,1.75
2022-10-04T03:08:31.558Z,1.58
2022-10-04T03:11:01.758Z,2.22
2022-10-04T03:13:29.430Z,1.95
2022-10-04T03:15:57.676Z,2.08
2022-10-04T03:18:25.864Z,1.77
2022-10-04T03:20:54.504Z,1.70
2022-10-04T03:23:22.208Z,2.00
2022-10-04T03:25:56.998Z,1.73
2022-10-04T03:28:24.893Z,1.92
2022-10-04T03:30:52.726Z,1.65
2022-10-04T03:33:23.128Z,1.83
2022-10-04T03:35:54.872Z,2.17
2022-10-04T03:38:26.589Z,1.92
2022-10-04T03:40:56.934Z,1.85
2022-10-04T03:43:28.815Z,1.90
2022-10-04T03:45:58.528Z,1.88
2022-10-04T03:48:31.291Z,1.77
2022-10-04T03:51:00.791Z,2.13
2022-10-04T03:53:35.452Z,2.17
2022-10-04T03:56:11.839Z,2.65
2022-10-04T03:58:39.943Z,2.35
2022-10-04T04:01:21.641Z,2.85
2022-10-04T04:04:04.606Z,3.22
2022-10-04T04:07:01.951Z,2.63
2022-10-04T04:09:43.194Z,2.97
2022-10-04T04:12:18.038Z,2.90
2022-10-04T04:14:51.587Z,2.47
2022-10-04T04:17:50.909Z,2.17
2022-10-04T04:20:41.359Z,2.63
2022-10-04T04:23:33.853Z,2.38
2022-10-04T04:26:19.835Z,2.45
2022-10-04T04:28:56.989Z,2.28
2022-10-04T04:31:30.069Z,1.90
2022-10-04T04:34:15.369Z,2.20
2022-10-04T04:36:43.010Z,2.22
2022-10-04T04:39:45.127Z,2.38
2022-10-04T04:42:21.831Z,2.38
2022-10-04T04:44:57.098Z,2.38
2022-10-04T04:47:34.894Z,2.70
2022-10-04T04:50:18.499Z,3.10
2022-10-04T04:52:55.622Z,4.47
2022-10-04T04:55:26.443Z,6.75
2022-10-04T04:57:57.336Z,6.93
2022-10-04T05:00:32.005Z,6.78
2022-10-04T05:03:17.717Z,5.47
2022-10-04T05:05:51.092Z,4.25
2022-10-04T05:08:20.707Z,3.38
2022-10-04T05:11:00.333Z,3.22
2022-10-04T05:13:41.306Z,5.40
2022-10-04T05:16:23.919Z,5.53
2022-10-04T05:19:00.324Z,4.38
2022-10-04T05:21:30.705Z,3.67
2022-10-04T05:24:10.002Z,2.78
2022-10-04T05:26:37.873Z,5.85
2022-10-04T05:29:16.261Z,8.00
2022-10-04T05:32:08.763Z,6.80
2022-10-04T05:34:40.302Z,4.80
2022-10-04T05:37:37.241Z,3.92
2022-10-04T05:40:14.194Z,3.42
2022-10-04T05:45:25.292Z,3.70
2022-10-04T05:47:55.947Z,2.72
2022-10-04T05:50:35.376Z,3.30
2022-10-04T05:53:21.529Z,3.33
2022-10-04T05:55:56.828Z,3.40
2022-10-04T05:58:38.266Z,3.35
2022-10-04T06:01:32.324Z,2.60
2022-10-04T06:04:27.584Z,2.40
2022-10-04T06:07:13.102Z,2.55
2022-10-04T06:09:59.584Z,2.80
2022-10-04T06:12:50.900Z,2.90
2022-10-04T06:15:46.550Z,3.03
2022-10-04T06:18:43.126Z,2.97
2022-10-04T06:21:20.173Z,3.13
2022-10-04T06:24:04.785Z,3.45
2022-10-04T06:26:44.055Z,4.25
2022-10-04T06:29:17.630Z,3.05
2022-10-04T06:31:45.682Z,2.13
2022-10-04T06:34:50.157Z,2.67
2022-10-04T06:37:59.455Z,2.78
2022-10-04T06:41:01.206Z,3.00
2022-10-04T06:43:28.947Z,4.00
2022-10-04T06:46:42.556Z,3.92
2022-10-04T06:49:57.984Z,4.05
2022-10-04T06:52:25.611Z,3.25
2022-10-04T06:55:24.411Z,2.67
2022-10-04T06:58:00.155Z,2.50
2022-10-04T07:00:33.727Z,1.75
2022-10-04T07:03:27.854Z,2.05
2022-10-04T07:06:01.641Z,2.00
2022-10-04T07:08:40.322Z,2.10
2022-10-04T07:11:14.373Z,2.38
2022-10-04T07:13:58.492Z,2.05
2022-10-04T07:16:38.203Z,1.92
2022-10-04T07:19:26.450Z,2.40
2022-10-04T07:22:12.331Z,4.00
2022-10-04T07:24:55.978Z,5.10
2022-10-04T07:27:35.049Z,4.97
2022-10-04T07:30:07.401Z,7.10
2022-10-04T07:32:38.966Z,6.32
2022-10-04T07:35:09.879Z,7.13
2022-10-04T07:37:58.959Z,5.38
2022-10-04T07:40:33.836Z,4.90
2022-10-04T07:43:08.347Z,4.20
2022-10-04T07:45:40.252Z,4.30
2022-10-04T07:48:17.896Z,3.63
2022-10-04T07:51:19.353Z,3.20
2022-10-04T07:53:56.341Z,2.88
2022-10-04T07:57:01.510Z,2.42
2022-10-04T07:59:58.981Z,2.83
2022-10-04T08:02:31.302Z,2.75
2022-10-04T08:05:25.673Z,1.90
2022-10-04T08:08:04.241Z,2.20
2022-10-04T08:10:59.864Z,2.50
2022-10-04T08:13:51.488Z,2.50
2022-10-04T08:16:53.246Z,2.75
2022-10-04T08:19:36.375Z,2.85
2022-10-04T08:22:13.005Z,2.22
2022-10-04T08:24:58.675Z,2.30
2022-10-04T08:28:14.529Z,2.53
2022-10-04T08:31:04.421Z,2.10
2022-10-04T08:33:53.729Z,1.90
2022-10-04T08:36:48.463Z,2.28
2022-10-04T08:39:47.033Z,2.35
2022-10-04T08:42:17.807Z,3.15
2022-10-04T08:44:57.501Z,2.85
2022-10-04T08:47:47.287Z,3.13
2022-10-04T08:50:49.209Z,3.25
2022-10-04T08:53:42.317Z,2.65
2022-10-04T08:56:21.725Z,2.28
2022-10-04T08:59:14.265Z,3.60
2022-10-04T09:02:07.005Z,3.67
2022-10-04T09:05:07.367Z,3.55
2022-10-04T09:07:53.235Z,3.33
2022-10-04T09:10:33.524Z,3.15
2022-10-04T09:13:30.986Z,3.88
2022-10-04T09:16:19.815Z,5.82
2022-10-04T09:19:10.821Z,7.75
2022-10-04T09:22:05.102Z,7.35
2022-10-04T09:25:00.048Z,7.00
2022-10-04T09:27:55.640Z,6.22
2022-10-04T09:30:41.463Z,5.00
2022-10-04T09:33:40.343Z,3.83
2022-10-04T09:36:19.930Z,3.28
2022-10-04T09:39:34.385Z,2.35
2022-10-04T09:42:28.250Z,2.22
2022-10-04T09:45:16.063Z,2.22
2022-10-04T09:47:46.633Z,2.45
2022-10-04T09:50:19.094Z,1.90
2022-10-04T09:52:54.041Z,2.40
2022-10-04T09:55:43.245Z,1.98
2022-10-04T09:58:29.666Z,2.30
2022-10-04T10:01:30.337Z,2.88
2022-10-04T10:04:28.827Z,6.15
2022-10-04T10:07:24.673Z,16.38
2022-10-04T10:10:39.503Z,16.85
2022-10-04T10:13:43.061Z,12.38
2022-10-04T10:16:20.473Z,9.35
2022-10-04T10:19:07.270Z,7.60
2022-10-04T10:21:50.240Z,8.52
2022-10-04T10:24:58.237Z,7.13
2022-10-04T10:28:04.313Z,5.32
2022-10-04T10:30:32.104Z,3.40
2022-10-04T10:33:31.215Z,3.55
2022-10-04T10:36:29.791Z,2.92
2022-10-04T10:39:19.196Z,2.45
2022-10-04T10:42:06.607Z,2.13
2022-10-04T10:47:37.837Z,1.60
2022-10-04T10:50:27.722Z,1.55
2022-10-04T10:53:32.536Z,1.60
2022-10-04T10:56:09.521Z,1.92
2022-10-04T10:58:52.468Z,1.95
2022-10-04T11:01:55.453Z,1.63
2022-10-04T11:04:26.068Z,1.42
2022-10-04T11:07:20.718Z,1.52
2022-10-04T11:10:29.463Z,1.50
2022-10-04T11:13:16.187Z,1.73
2022-10-04T11:15:50.014Z,1.55
2022-10-04T11:18:48.000Z,1.77
2022-10-04T11:26:40.079Z,2.00
2022-10-04T11:29:32.667Z,1.90
2022-10-04T11:32:00.357Z,2.80
2022-10-04T11:34:47.149Z,2.90
2022-10-04T11:37:23.082Z,3.20
2022-10-04T11:40:22.079Z,2.83
2022-10-04T11:43:24.494Z,5.00
2022-10-04T11:46:11.320Z,3.80
2022-10-04T11:49:18.723Z,3.58
2022-10-04T11:52:26.071Z,3.70
2022-10-04T11:55:20.634Z,5.65
2022-10-04T11:57:58.304Z,7.70
2022-10-04T12:00:31.840Z,6.68
2022-10-04T12:03:28.310Z,5.53
2022-10-04T12:06:15.010Z,4.07
2022-10-04T12:08:52.927Z,4.00
2022-10-04T12:11:58.487Z,4.50
2022-10-04T12:14:33.742Z,6.18
2022-10-04T12:17:08.679Z,7.55
2022-10-04T12:19:39.852Z,18.80
2022-10-04T12:22:31.095Z,24.17
2022-10-04T12:25:18.738Z,19.70
2022-10-04T12:28:11.818Z,18.27
2022-10-04T12:30:58.459Z,16.20
2022-10-04T12:33:36.423Z,13.85
2022-10-04T12:36:13.683Z,11.50
2022-10-04T12:39:36.158Z,5.30
2022-10-04T12:42:32.359Z,4.25
2022-10-04T12:45:22.146Z,2.53
2022-10-04T12:48:12.141Z,2.00
2022-10-04T12:51:10.096Z,2.00
2022-10-04T12:53:40.648Z,2.03
2022-10-04T12:56:22.001Z,1.98
2022-10-04T12:59:01.944Z,1.25
2022-10-04T13:01:51.423Z,1.30
2022-10-04T13:04:31.296Z,1.05
2022-10-04T13:07:05.169Z,1.30
2022-10-04T13:10:23.712Z,1.17
2022-10-04T13:12:55.741Z,2.25
2022-10-04T13:18:53.671Z,1.77
2022-10-04T13:21:47.914Z,2.83
2022-10-04T13:24:31.005Z,2.05
2022-10-04T13:27:07.676Z,1.95
2022-10-04T13:32:28.263Z,1.80
2022-10-04T13:35:20.742Z,2.05
2022-10-04T13:38:00.819Z,1.85
2022-10-04T13:40:50.912Z,1.58
2022-10-04T13:43:40.063Z,1.25
2022-10-04T13:46:32.731Z,2.28
2022-10-04T13:49:42.301Z,3.80
2022-10-04T13:52:40.326Z,4.88
2022-10-04T13:58:29.215Z,4.07
2022-10-04T14:01:17.820Z,4.50
2022-10-04T14:03:57.465Z,2.80
2022-10-04T14:06:38.560Z,2.42
2022-10-04T14:09:53.994Z,1.90
2022-10-04T14:12:45.060Z,1.92
2022-10-04T14:15:53.886Z,1.70
2022-10-04T14:18:33.888Z,1.50
2022-10-04T14:21:48.313Z,1.50
2022-10-04T14:24:28.517Z,1.10
2022-10-04T14:27:09.543Z,1.55
2022-10-04T14:29:59.311Z,1.50
2022-10-04T14:32:38.420Z,1.42
2022-10-04T14:35:27.870Z,1.40
2022-10-04T14:38:14.419Z,1.63
2022-10-04T14:41:25.329Z,1.40
2022-10-04T14:44:02.103Z,1.48
2022-10-04T14:49:31.174Z,2.90
2022-10-04T14:52:34.292Z,3.45
2022-10-04T14:55:15.826Z,3.58
2022-10-04T14:58:05.500Z,2.80
2022-10-04T15:01:11.466Z,4.55
2022-10-04T15:03:55.597Z,3.35
2022-10-04T15:06:49.058Z,3.38
2022-10-04T15:09:48.645Z,3.90
2022-10-04T15:12:51.955Z,2.47
2022-10-04T15:15:13.406Z,1.70
2022-10-04T15:17:55.443Z,1.38
2022-10-04T15:20:28.576Z,1.20
2022-10-04T15:23:11.890Z,1.23
2022-10-04T15:26:50.010Z,1.40
2022-10-04T15:29:36.476Z,1.00
2022-10-04T15:32:30.713Z,1.10
2022-10-04T15:35:35.768Z,1.10
2022-10-04T15:38:25.323Z,1.67
2022-10-04T15:41:24.132Z,1.88
2022-10-04T15:44:14.093Z,1.80
2022-10-04T15:46:44.907Z,1.98
2022-10-04T15:49:33.219Z,1.95
2022-10-04T15:52:43.487Z,2.00
2022-10-04T15:55:16.560Z,2.03
2022-10-04T15:58:16.224Z,2.08
2022-10-04T16:01:00.522Z,2.00
2022-10-04T16:03:46.405Z,1.75
2022-10-04T16:06:28.680Z,1.00
2022-10-04T16:09:17.437Z,0.80
2022-10-04T16:12:08.026Z,1.38
2022-10-04T16:14:38.709Z,1.27
2022-10-04T16:17:19.058Z,0.90
2022-10-04T16:20:20.224Z,0.80
2022-10-04T16:23:25.298Z,1.27
2022-10-04T16:25:55.898Z,1.30
2022-10-04T16:28:29.726Z,0.80
2022-10-04T16:31:20.571Z,1.30
2022-10-04T16:34:33.247Z,1.13
2022-10-04T16:37:16.881Z,1.10
2022-10-04T16:39:59.514Z,1.08
2022-10-04T16:42:45.545Z,1.10
2022-10-04T16:45:54.689Z,1.23
2022-10-04T16:48:41.170Z,1.10
2022-10-04T16:51:18.142Z,1.20
2022-10-04T16:56:56.751Z,1.40
2022-10-04T16:59:41.892Z,1.30
2022-10-04T17:02:15.473Z,1.23
2022-10-04T17:04:55.739Z,1.92
2022-10-04T17:07:35.992Z,1.50
2022-10-04T17:10:31.122Z,1.60
2022-10-04T17:13:23.627Z,1.50
2022-10-04T17:16:06.903Z,1.50
2022-10-04T17:18:47.072Z,1.80
2022-10-04T17:21:32.210Z,1.90
2022-10-04T17:24:24.115Z,2.42
2022-10-04T17:27:05.880Z,2.33
2022-10-04T17:29:55.600Z,3.50
2022-10-04T17:32:31.885Z,3.17
2022-10-04T17:35:18.169Z,2.50
2022-10-04T17:38:00.546Z,2.25
2022-10-04T17:40:37.521Z,1.88
2022-10-04T17:43:24.611Z,2.00
2022-10-04T17:46:10.777Z,1.80
2022-10-04T17:49:05.373Z,1.73
2022-10-04T17:51:59.939Z,2.58
2022-10-04T17:54:58.393Z,2.30
2022-10-04T17:57:35.361Z,2.80
2022-10-04T18:00:09.384Z,2.80
2022-10-04T18:03:02.363Z,2.70
2022-10-04T18:05:42.256Z,2.42
2022-10-04T18:08:24.228Z,2.85
2022-10-04T18:11:03.680Z,2.45
2022-10-04T18:14:12.069Z,3.83
2022-10-04T18:16:54.817Z,4.70
2022-10-04T18:19:54.934Z,4.28
2022-10-04T18:22:29.230Z,3.72
2022-10-04T18:25:26.354Z,3.67
2022-10-04T18:28:10.031Z,3.55
2022-10-04T18:30:46.855Z,2.97
2022-10-04T18:35:52.899Z,4.22
2022-10-04T18:38:28.395Z,7.80
2022-10-04T18:41:21.302Z,9.20
2022-10-04T18:43:53.201Z,9.25
2022-10-04T18:46:23.386Z,6.68
2022-10-04T18:48:54.005Z,6.15
2022-10-04T18:51:29.739Z,9.80
2022-10-04T18:54:12.743Z,11.48
2022-10-04T18:56:54.660Z,10.60
2022-10-04T19:00:10.274Z,9.93
2022-10-04T19:02:58.244Z,23.35
2022-10-04T19:05:42.189Z,19.63
2022-10-04T19:08:10.143Z,13.77
2022-10-04T19:10:55.942Z,11.13
2022-10-04T19:13:39.864Z,11.15
2022-10-04T19:16:07.609Z,9.40
2022-10-04T19:18:48.788Z,7.63
2022-10-04T19:21:23.609Z,5.68
2022-10-04T19:24:06.416Z,4.78
2022-10-04T19:26:43.122Z,3.70
2022-10-04T19:29:19.821Z,3.33
2022-10-04T19:32:10.404Z,3.20
2022-10-04T19:34:53.790Z,2.85
2022-10-04T19:37:27.921Z,2.72
2022-10-04T19:40:39.141Z,2.35
2022-10-04T19:43:13.473Z,2.58
2022-10-04T19:45:43.779Z,1.85
2022-10-04T19:48:24.163Z,1.92
2022-10-04T19:51:16.209Z,1.83
2022-10-04T19:53:45.742Z,1.90
2022-10-04T19:56:24.054Z,2.10
2022-10-04T19:58:54.935Z,1.98
2022-10-04T20:01:26.439Z,1.85
2022-10-04T20:04:16.022Z,2.60
2022-10-04T20:09:55.708Z,3.55
2022-10-04T20:12:38.615Z,5.47
2022-10-04T20:15:15.130Z,7.80
2022-10-04T20:17:45.053Z,9.45
2022-10-04T20:20:39.105Z,9.80
2022-10-04T20:23:08.354Z,9.55
2022-10-04T20:25:49.346Z,7.95
2022-10-04T20:28:29.002Z,6.88
2022-10-04T20:31:01.409Z,5.88
2022-10-04T20:33:49.879Z,4.38
2022-10-04T20:36:20.616Z,3.05
2022-10-04T20:39:00.368Z,2.80
2022-10-04T20:41:27.979Z,2.67
2022-10-04T20:43:57.506Z,2.20
2022-10-04T20:46:27.197Z,1.80
2022-10-04T20:48:56.021Z,2.30
2022-10-04T20:51:33.114Z,2.38
2022-10-04T20:54:03.704Z,2.35
2022-10-04T20:56:33.648Z,2.20
2022-10-04T20:59:03.662Z,2.80
2022-10-04T21:01:36.355Z,4.25
2022-10-04T21:04:41.790Z,3.40
2022-10-04T21:07:12.681Z,2.78
2022-10-04T21:09:42.091Z,3.22
2022-10-04T21:12:46.017Z,7.68
2022-10-04T21:15:16.421Z,9.70
2022-10-04T21:18:00.572Z,9.90
2022-10-04T21:20:49.327Z,7.82
2022-10-04T21:23:31.575Z,7.47
2022-10-04T21:26:28.145Z,5.63
2022-10-04T21:28:59.617Z,4.50
2022-10-04T21:31:27.461Z,4.93
2022-10-04T21:33:55.296Z,6.90
2022-10-04T21:36:22.843Z,7.45
2022-10-04T21:38:50.555Z,6.35
2022-10-04T21:41:18.353Z,5.38
2022-10-04T21:43:45.893Z,4.15
2022-10-04T21:46:19.351Z,3.70
2022-10-04T21:48:48.271Z,2.65
2022-10-04T21:51:16.008Z,2.00
2022-10-04T21:53:43.735Z,2.10
2022-10-04T21:56:11.357Z,2.25
2022-10-04T21:58:39.115Z,2.00
2022-10-04T22:01:07.558Z,1.95
2022-10-04T22:03:35.251Z,1.80
2022-10-04T22:06:02.932Z,2.30
2022-10-04T22:08:30.653Z,1.88
2022-10-04T22:10:58.279Z,2.30
2022-10-04T22:13:27.047Z,1.60
2022-10-04T22:15:55.434Z,2.13
2022-10-04T22:18:23.311Z,2.00
2022-10-04T22:20:50.890Z,1.85
2022-10-04T22:23:26.113Z,2.05
2022-10-04T22:25:54.862Z,2.05
2022-10-04T22:28:27.880Z,2.20
2022-10-04T22:30:55.965Z,2.50
2022-10-04T22:33:32.457Z,2.30
2022-10-04T22:36:25.166Z,2.10
2022-10-04T22:39:02.816Z,2.47
2022-10-04T22:41:33.928Z,2.42
2022-10-04T22:44:17.074Z,2.42
2022-10-04T22:46:49.610Z,3.00
2022-10-04T22:49:20.254Z,2.35
2022-10-04T22:51:50.716Z,2.42
2022-10-04T22:54:25.566Z,2.72
2022-10-04T22:56:54.187Z,2.53
2022-10-04T22:59:27.417Z,2.60
2022-10-04T23:01:55.462Z,2.17
2022-10-04T23:04:25.824Z,2.30
2022-10-04T23:06:53.914Z,2.40
2022-10-04T23:09:21.704Z,1.75
2022-10-04T23:11:49.384Z,1.42
2022-10-04T23:14:17.035Z,2.00
2022-10-04T23:16:46.204Z,1.85
2022-10-04T23:19:21.529Z,2.05
2022-10-04T23:21:50.465Z,1.77
2022-10-04T23:24:20.765Z,1.70
2022-10-04T23:26:58.836Z,1.50
2022-10-04T23:29:30.498Z,1.48
2022-10-04T23:31:58.482Z,1.42
2022-10-04T23:34:30.854Z,1.60
2022-10-04T23:36:58.541Z,1.60
2022-10-04T23:39:32.845Z,1.50
2022-10-04T23:42:02.090Z,1.73
2022-10-04T23:44:38.204Z,1.30
2022-10-04T23:47:13.903Z,1.70
2022-10-04T23:49:42.768Z,1.83
2022-10-04T23:52:20.139Z,1.67
2022-10-04T23:54:53.570Z,1.73
2022-10-04T23:57:24.742Z,1.85
2022-10-04T23:59:52.558Z,1.50
